createdAt,value
2018-05-23T01:02:15.052Z,97729
2018-05-23T01:04:47.854Z,97736
2018-05-23T01:07:20.716Z,97737
2018-05-23T01:09:53.475Z,97732
2018-05-23T01:12:26.170Z,97735
2018-05-23T01:14:59.292Z,97735
2018-05-23T01:17:31.575Z,97743
2018-05-23T01:20:03.609Z,97740
2018-05-23T01:22:36.155Z,97741
2018-05-23T01:25:08.531Z,97746
2018-05-23T01:27:40.537Z,97744
2018-05-23T01:30:12.814Z,97747
2018-05-23T01:32:44.857Z,97744
2018-05-23T01:35:16.692Z,97745
2018-05-23T01:37:49.211Z,97746
2018-05-23T01:40:22.660Z,97751
2018-05-23T01:42:55.151Z,97757
2018-05-23T01:45:29.973Z,97762
2018-05-23T01:48:03.471Z,97762
2018-05-23T01:50:36.054Z,97770
2018-05-23T01:53:09.160Z,97771
2018-05-23T01:55:44.854Z,97776
2018-05-23T01:58:17.978Z,97767
2018-05-23T02:00:50.812Z,97768
2018-05-23T02:03:23.051Z,97768
2018-05-23T02:05:56.658Z,97763
2018-05-23T02:08:30.814Z,97762
2018-05-23T02:11:05.498Z,97760
2018-05-23T02:13:37.475Z,97763
2018-05-23T02:16:10.232Z,97756
2018-05-23T02:18:42.313Z,97757
2018-05-23T02:21:14.916Z,97757
2018-05-23T02:23:48.913Z,97755
2018-05-23T02:26:23.650Z,97751
2018-05-23T02:28:56.634Z,97752
2018-05-23T02:31:29.574Z,97756
2018-05-23T02:34:01.919Z,97759
2018-05-23T02:36:35.952Z,97759
2018-05-23T02:39:10.153Z,97760
2018-05-23T02:41:42.753Z,97759
2018-05-23T02:44:14.796Z,97759
2018-05-23T02:46:46.955Z,97764
2018-05-23T02:49:19.153Z,97757
2018-05-23T02:51:51.998Z,97758
2018-05-23T02:54:24.112Z,97773
2018-05-23T02:56:56.171Z,97774
2018-05-23T02:59:28.873Z,97774
2018-05-23T03:02:02.200Z,97781
2018-05-23T03:04:34.211Z,97781
2018-05-23T03:07:07.193Z,97786
2018-05-23T03:09:40.671Z,97784
2018-05-23T03:12:14.648Z,97784
2018-05-23T03:14:48.195Z,97789
2018-05-23T03:17:20.969Z,97786
2018-05-23T03:19:53.453Z,97790
2018-05-23T03:22:29.252Z,97792
2018-05-23T03:25:02.292Z,97792
2018-05-23T03:27:35.471Z,97797
2018-05-23T03:30:10.015Z,97802
2018-05-23T03:32:42.735Z,97810
2018-05-23T03:35:18.174Z,97819
2018-05-23T03:37:52.217Z,97826
2018-05-23T03:40:24.577Z,97828
2018-05-23T03:42:56.735Z,97835
2018-05-23T03:45:31.702Z,97835
2018-05-23T03:48:04.260Z,97837
2018-05-23T03:50:36.399Z,97830
2018-05-23T03:53:09.132Z,97829
2018-05-23T03:55:43.020Z,97827
2018-05-23T03:58:17.417Z,97841
2018-05-23T04:04:06.293Z,97851
2018-05-23T04:06:55.688Z,97855
2018-05-23T04:09:28.276Z,97857
2018-05-23T04:12:04.301Z,97858
2018-05-23T04:14:41.455Z,97863
2018-05-23T04:17:14.456Z,97867
2018-05-23T04:19:46.778Z,97870
2018-05-23T04:22:19.953Z,97869
2018-05-23T04:24:53.262Z,97866
2018-05-23T04:27:26.157Z,97870
2018-05-23T04:30:01.930Z,97876
2018-05-23T04:32:35.793Z,97877
2018-05-23T04:35:08.141Z,97881
2018-05-23T04:37:41.438Z,97880
2018-05-23T04:40:15.712Z,97886
2018-05-23T04:42:48.630Z,97884
2018-05-23T04:45:21.117Z,97895
2018-05-23T04:47:55.873Z,97898
2018-05-23T04:50:29.038Z,97898
2018-05-23T04:53:02.637Z,97904
2018-05-23T04:55:34.894Z,97903
2018-05-23T04:58:08.595Z,97904
2018-05-23T05:00:41.336Z,97911
2018-05-23T05:03:14.358Z,97910
2018-05-23T05:05:49.903Z,97912
2018-05-23T05:08:25.176Z,97911
2018-05-23T05:10:57.677Z,97913
2018-05-23T05:13:33.354Z,97916
2018-05-23T05:16:08.990Z,97916
2018-05-23T05:18:43.655Z,97919
2018-05-23T05:21:18.130Z,97923
2018-05-23T05:23:50.412Z,97926
2018-05-23T05:26:28.001Z,97934
2018-05-23T05:29:02.692Z,97941
2018-05-23T05:31:36.729Z,97938
2018-05-23T05:34:10.295Z,97944
2018-05-23T05:36:44.454Z,97942
2018-05-23T05:39:19.873Z,97948
2018-05-23T05:41:55.372Z,97943
2018-05-23T05:44:30.297Z,97947
2018-05-23T05:47:02.943Z,97942
2018-05-23T05:49:37.042Z,97950
2018-05-23T05:52:11.396Z,97950
2018-05-23T05:54:46.998Z,97953
2018-05-23T05:57:20.572Z,97958
2018-05-23T05:59:55.155Z,97960
2018-05-23T06:02:28.072Z,97965
2018-05-23T06:05:02.734Z,97968
2018-05-23T06:07:37.594Z,97970
2018-05-23T06:10:13.115Z,97969
2018-05-23T06:12:48.697Z,97973
2018-05-23T06:15:20.853Z,97974
2018-05-23T06:17:55.454Z,97979
2018-05-23T06:20:28.680Z,97981
2018-05-23T06:23:02.582Z,97979
2018-05-23T06:25:39.672Z,97982
2018-05-23T06:28:12.317Z,97985
2018-05-23T06:30:44.776Z,97988
2018-05-23T06:33:18.533Z,97989
2018-05-23T06:35:55.002Z,97996
2018-05-23T06:38:28.676Z,98001
2018-05-23T06:41:01.914Z,97999
2018-05-23T06:43:34.338Z,98003
2018-05-23T06:46:09.653Z,98005
2018-05-23T06:48:43.497Z,98008
2018-05-23T06:51:17.463Z,98007
2018-05-23T06:53:50.798Z,98012
2018-05-23T06:56:24.836Z,98017
2018-05-23T06:58:58.418Z,98012
2018-05-23T07:01:33.734Z,98014
2018-05-23T07:04:07.738Z,98014
2018-05-23T07:06:42.777Z,98014
2018-05-23T07:09:17.418Z,98011
2018-05-23T07:11:51.757Z,98010
2018-05-23T07:14:24.600Z,98016
2018-05-23T07:16:59.495Z,98013
2018-05-23T07:19:35.856Z,98016
2018-05-23T07:22:08.112Z,98015
2018-05-23T07:24:43.540Z,98014
2018-05-23T07:27:16.734Z,98015
2018-05-23T07:29:54.551Z,98019
2018-05-23T07:32:27.177Z,98025
2018-05-23T07:34:59.391Z,98024
2018-05-23T07:37:32.213Z,98023
2018-05-23T07:40:07.428Z,98021
2018-05-23T07:42:42.712Z,98030
2018-05-23T07:45:17.941Z,98035
2018-05-23T07:47:51.716Z,98032
2018-05-23T07:50:27.218Z,98031
2018-05-23T07:53:01.257Z,98033
2018-05-23T07:55:35.216Z,98034
2018-05-23T07:58:10.692Z,98039
2018-05-23T08:00:43.974Z,98045
2018-05-23T08:03:19.735Z,98048
2018-05-23T08:05:53.357Z,98050
2018-05-23T08:08:26.938Z,98052
2018-05-23T08:11:01.783Z,98055
2018-05-23T08:13:35.994Z,98058
2018-05-23T08:16:09.359Z,98059
2018-05-23T08:18:43.542Z,98058
2018-05-23T08:21:16.474Z,98061
2018-05-23T08:23:51.638Z,98063
2018-05-23T08:26:25.318Z,98061
2018-05-23T08:29:01.598Z,98059
2018-05-23T08:31:34.933Z,98058
2018-05-23T08:34:09.238Z,98054
2018-05-23T08:36:45.716Z,98056
2018-05-23T08:39:18.935Z,98049
2018-05-23T08:41:53.436Z,98049
2018-05-23T08:44:26.174Z,98050
2018-05-23T08:47:04.300Z,98056
2018-05-23T08:49:39.293Z,98050
2018-05-23T08:52:12.333Z,98049
2018-05-23T08:54:46.314Z,98052
2018-05-23T08:57:26.415Z,98057
2018-05-23T09:00:00.130Z,98056
2018-05-23T09:02:35.619Z,98053
2018-05-23T09:05:11.982Z,98051
2018-05-23T09:07:45.834Z,98054
2018-05-23T09:10:18.894Z,98056
2018-05-23T09:12:51.823Z,98063
2018-05-23T09:15:25.893Z,98054
2018-05-23T09:17:58.917Z,98056
2018-05-23T09:20:34.877Z,98051
2018-05-23T09:23:10.456Z,98053
2018-05-23T09:25:44.857Z,98056
2018-05-23T09:28:25.392Z,98053
2018-05-23T09:30:58.812Z,98055
2018-05-23T09:33:31.512Z,98055
2018-05-23T09:36:05.172Z,98059
2018-05-23T09:38:42.174Z,98060
2018-05-23T09:41:17.514Z,98056
2018-05-23T09:43:53.110Z,98057
2018-05-23T09:46:29.571Z,98055
2018-05-23T09:49:06.613Z,98057
2018-05-23T09:51:41.078Z,98056
2018-05-23T09:54:14.453Z,98050
2018-05-23T09:56:47.470Z,98047
2018-05-23T09:59:21.038Z,98049
2018-05-23T10:01:54.951Z,98051
2018-05-23T10:04:26.796Z,98048
2018-05-23T10:06:59.108Z,98043
2018-05-23T10:09:31.932Z,98038
2018-05-23T10:12:05.017Z,98035
2018-05-23T10:14:39.497Z,98039
2018-05-23T10:17:13.416Z,98035
2018-05-23T10:19:47.336Z,98037
2018-05-23T10:22:20.275Z,98031
2018-05-23T10:24:58.280Z,98037
2018-05-23T10:27:39.830Z,98033
2018-05-23T10:30:13.693Z,98041
2018-05-23T10:32:46.059Z,98040
2018-05-23T10:35:24.896Z,98046
2018-05-23T10:37:59.135Z,98047
2018-05-23T10:40:36.375Z,98044
2018-05-23T10:43:10.659Z,98047
2018-05-23T10:45:42.955Z,98046
2018-05-23T10:48:17.553Z,98042
2018-05-23T10:50:55.512Z,98037
2018-05-23T10:53:33.395Z,98036
2018-05-23T10:56:06.755Z,98031
2018-05-23T10:58:39.791Z,98027
2018-05-23T11:01:14.335Z,98020
2018-05-23T11:03:50.560Z,98014
2018-05-23T11:06:24.236Z,98011
2018-05-23T11:08:59.530Z,98010
2018-05-23T11:11:31.693Z,98001
2018-05-23T11:14:07.132Z,97999
2018-05-23T11:16:41.237Z,97995
2018-05-23T11:19:17.412Z,97989
2018-05-23T11:21:50.351Z,97983
2018-05-23T11:24:24.398Z,97984
2018-05-23T11:26:56.537Z,97984
2018-05-23T11:29:29.350Z,97985
2018-05-23T11:32:02.415Z,97984
2018-05-23T11:34:34.856Z,97986
2018-05-23T11:37:08.415Z,97987
2018-05-23T11:39:40.780Z,97989
2018-05-23T11:42:16.155Z,97986
2018-05-23T11:44:50.427Z,97978
2018-05-23T11:47:23.497Z,97978
2018-05-23T11:49:58.672Z,97972
2018-05-23T11:52:30.403Z,97974
2018-05-23T11:55:04.372Z,97967
2018-05-23T11:57:40.598Z,97955
2018-05-23T12:00:17.695Z,97949
2018-05-23T12:02:51.369Z,97946
2018-05-23T12:05:25.317Z,97940
2018-05-23T12:08:01.174Z,97934
2018-05-23T12:10:33.522Z,97931
2018-05-23T12:13:06.713Z,97929
2018-05-23T12:15:39.895Z,97927
2018-05-23T12:18:12.600Z,97921
2018-05-23T12:20:44.435Z,97927
2018-05-23T12:23:22.232Z,97923
2018-05-23T12:25:57.053Z,97918
2018-05-23T12:28:32.576Z,97927
2018-05-23T12:31:07.511Z,97933
2018-05-23T12:33:39.836Z,97933
2018-05-23T12:36:15.896Z,97927
2018-05-23T12:38:50.531Z,97918
2018-05-23T12:41:23.712Z,97912
2018-05-23T12:43:56.740Z,97906
2018-05-23T12:46:30.575Z,97911
2018-05-23T12:49:10.261Z,97912
2018-05-23T12:51:43.777Z,97916
2018-05-23T12:54:18.036Z,97915
2018-05-23T12:56:58.774Z,97923
2018-05-23T12:59:31.836Z,97930
2018-05-23T13:53:08.532Z,97978
2018-05-23T13:55:45.995Z,97981
2018-05-23T13:58:32.434Z,97975
2018-05-23T14:01:11.158Z,97974
2018-05-23T14:03:53.456Z,97969
2018-05-23T14:06:38.892Z,97966
2018-05-23T14:12:30.140Z,97959
2018-05-23T14:15:09.495Z,97959
2018-05-23T14:17:47.361Z,97959
2018-05-23T14:20:38.838Z,97965
2018-05-23T14:23:16.413Z,97957
2018-05-23T14:25:55.058Z,97945
2018-05-23T14:28:32.544Z,97941
2018-05-23T14:34:05.655Z,97936
2018-05-23T14:36:52.039Z,97937
2018-05-23T14:39:46.024Z,97941
2018-05-23T14:42:18.836Z,97947
2018-05-23T14:44:52.391Z,97948
2018-05-23T14:47:26.135Z,97945
2018-05-23T14:49:58.891Z,97946
2018-05-23T14:52:36.774Z,97947
2018-05-23T14:55:11.711Z,97950
2018-05-23T14:57:44.103Z,97953
2018-05-23T15:00:17.921Z,97956
2018-05-23T15:02:53.532Z,97964
2018-05-23T15:05:26.456Z,97974
2018-05-23T15:08:03.894Z,97978
2018-05-23T15:10:37.457Z,97984
2018-05-23T15:13:11.518Z,97992
2018-05-23T15:15:45.825Z,97999
2018-05-23T15:18:18.631Z,97992
2018-05-23T15:20:56.409Z,97994
2018-05-23T15:23:29.753Z,97987
2018-05-23T15:26:05.183Z,97993
2018-05-23T15:28:37.132Z,97988
2018-05-23T15:31:16.079Z,97982
2018-05-23T15:33:47.532Z,97990
2018-05-23T15:36:31.378Z,98005
2018-05-23T15:39:04.780Z,98004
2018-05-23T15:41:41.474Z,98003
2018-05-23T15:44:17.996Z,98010
2018-05-23T15:46:52.258Z,98000
2018-05-23T15:49:26.615Z,98000
2018-05-23T15:52:00.075Z,97992
2018-05-23T15:54:34.534Z,97995
2018-05-23T15:57:10.452Z,98001
2018-05-23T15:59:46.535Z,98008
2018-05-23T16:02:21.174Z,98016
2018-05-23T16:04:56.636Z,98019
2018-05-23T16:07:30.131Z,98033
2018-05-23T16:10:02.713Z,98034
2018-05-23T16:12:35.656Z,98038
2018-05-23T16:15:10.561Z,98042
2018-05-23T16:17:50.114Z,98044
2018-05-23T16:47:19.933Z,98065
2018-05-23T16:49:53.697Z,98059
2018-05-23T16:52:26.557Z,98053
2018-05-23T16:55:00.731Z,98050
2018-05-23T16:57:32.477Z,98054
2018-05-23T17:00:06.662Z,98050
2018-05-23T17:02:40.632Z,98054
2018-05-23T17:05:13.494Z,98054
2018-05-23T17:07:47.114Z,98056
2018-05-23T17:10:20.950Z,98060
2018-05-23T17:12:53.692Z,98059
2018-05-23T17:15:27.498Z,98069
2018-05-23T17:18:00.955Z,98062
2018-05-23T17:20:33.779Z,98071
2018-05-23T17:23:07.375Z,98075
2018-05-23T17:25:42.779Z,98085
2018-05-23T17:28:18.193Z,98087
2018-05-23T17:30:51.489Z,98084
2018-05-23T17:33:24.587Z,98083
2018-05-23T17:35:58.198Z,98088
2018-05-23T17:38:31.856Z,98087
2018-05-23T17:41:04.632Z,98092
2018-05-23T17:43:39.153Z,98091
2018-05-23T17:46:11.853Z,98096
2018-05-23T17:48:46.812Z,98103
2018-05-23T17:51:19.271Z,98092
2018-05-23T17:53:52.537Z,98092
2018-05-23T17:56:26.340Z,98084
2018-05-23T17:58:59.173Z,98088
2018-05-23T18:01:32.438Z,98081
2018-05-23T18:04:04.655Z,98078
2018-05-23T18:06:43.674Z,98075
2018-05-23T18:09:20.012Z,98073
2018-05-23T18:11:53.023Z,98069
2018-05-23T18:14:27.415Z,98067
2018-05-23T18:17:02.411Z,98066
2018-05-23T18:19:36.096Z,98067
2018-05-23T18:22:09.699Z,98063
2018-05-23T18:24:42.111Z,98067
2018-05-23T18:27:16.056Z,98065
2018-05-23T18:29:54.876Z,98072
2018-05-23T18:32:28.739Z,98071
2018-05-23T18:35:01.056Z,98071
2018-05-23T18:37:33.735Z,98072
2018-05-23T18:40:08.553Z,98078
2018-05-23T18:42:41.870Z,98078
2018-05-23T18:45:17.500Z,98074
2018-05-23T18:47:50.680Z,98072
2018-05-23T18:50:23.536Z,98071
2018-05-23T18:52:56.596Z,98075
2018-05-23T18:55:29.173Z,98078
2018-05-23T18:58:01.738Z,98079
2018-05-23T19:00:33.914Z,98085
2018-05-23T20:17:43.271Z,98125
2018-05-23T20:20:16.632Z,98132
2018-05-23T20:22:50.396Z,98132
2018-05-23T20:25:22.716Z,98136
2018-05-23T20:27:55.212Z,98134
2018-05-23T20:30:28.575Z,98143
2018-05-23T20:33:01.595Z,98142
2018-05-23T20:35:34.149Z,98144
2018-05-23T20:38:06.579Z,98139
2018-05-23T20:40:40.077Z,98139
2018-05-23T20:43:12.537Z,98138
2018-05-23T20:45:47.474Z,98132
2018-05-23T20:48:22.690Z,98137
2018-05-23T20:50:55.996Z,98136
2018-05-23T20:53:28.160Z,98139
2018-05-23T22:10:36.666Z,98166
2018-05-23T22:35:11.323Z,98155
2018-05-23T22:37:43.441Z,98155
2018-05-23T22:40:16.123Z,98153
2018-05-23T22:42:49.059Z,98148
2018-05-23T22:45:22.341Z,98151
2018-05-23T22:47:55.397Z,98149
2018-05-23T22:50:28.385Z,98146
2018-05-23T22:53:01.101Z,98147
2018-05-23T22:55:34.402Z,98148
2018-05-23T22:58:07.987Z,98142
2018-05-23T23:00:40.843Z,98143
2018-05-23T23:03:13.721Z,98142
2018-05-23T23:05:46.961Z,98144
2018-05-23T23:08:20.297Z,98145
2018-05-23T23:10:54.283Z,98146
2018-05-23T23:13:26.444Z,98144
2018-05-23T23:15:58.763Z,98143
2018-05-23T23:18:32.860Z,98148
2018-05-23T23:21:05.601Z,98148
2018-05-23T23:23:37.819Z,98149
2018-05-23T23:26:10.862Z,98154
2018-05-23T23:28:44.900Z,98149
2018-05-23T23:31:17.522Z,98158
2018-05-23T23:33:50.863Z,98161
2018-05-23T23:36:23.761Z,98158
2018-05-23T23:38:55.908Z,98157
2018-05-23T23:41:28.969Z,98163
2018-05-23T23:44:02.062Z,98169
2018-05-23T23:46:34.963Z,98171
2018-05-23T23:49:08.484Z,98168
2018-05-23T23:51:40.867Z,98167
2018-05-23T23:54:13.139Z,98162
2018-05-23T23:56:45.464Z,98165
2018-05-23T23:59:17.484Z,98161
